sensor_id;sensor_type;location;lat;lon;timestamp;pressure;altitude;pressure_sealevel;temperature;humidity
65997;BME280;52765;52.258;21.052;2023-10-13T00:00:31;100656.66;;;10.08;100.00
65997;BME280;52765;52.258;21.052;2023-10-13T00:03:02;100651.41;;;10.06;100.00
65997;BME280;52765;52.258;21.052;2023-10-13T00:05:29;100656.06;;;10.04;100.00
65997;BME280;52765;52.258;21.052;2023-10-13T00:08:02;100665.16;;;10.03;100.00
65997;BME280;52765;52.258;21.052;2023-10-13T00:10:32;100666.28;;;10.00;100.00
65997;BME280;52765;52.258;21.052;2023-10-13T00:12:59;100654.66;;;10.00;100.00
65997;BME280;52765;52.258;21.052;2023-10-13T00:15:48;100660.88;;;10.00;100.00
65997;BME280;52765;52.258;21.052;2023-10-13T00:18:27;100662.47;;;10.03;100.00
65997;BME280;52765;52.258;21.052;2023-10-13T00:20:58;100665.84;;;10.05;100.00
65997;BME280;52765;52.258;21.052;2023-10-13T00:23:24;100665.16;;;10.03;100.00
65997;BME280;52765;52.258;21.052;2023-10-13T00:25:53;100666.00;;;10.04;100.00
65997;BME280;52765;52.258;21.052;2023-10-13T00:28:26;100663.00;;;10.07;100.00
65997;BME280;52765;52.258;21.052;2023-10-13T00:30:53;100661.44;;;10.04;100.00
65997;BME280;52765;52.258;21.052;2023-10-13T00:33:24;100672.13;;;9.96;100.00
65997;BME280;52765;52.258;21.052;2023-10-13T00:35:51;100678.47;;;9.95;100.00
65997;BME280;52765;52.258;21.052;2023-10-13T00:38:23;100670.25;;;9.96;100.00
65997;BME280;52765;52.258;21.052;2023-10-13T00:40:49;100673.09;;;9.95;100.00
65997;BME280;52765;52.258;21.052;2023-10-13T00:43:21;100673.66;;;9.98;100.00
65997;BME280;52765;52.258;21.052;2023-10-13T00:45:51;100683.72;;;9.96;100.00
65997;BME280;52765;52.258;21.052;2023-10-13T00:48:25;100684.56;;;9.97;100.00
65997;BME280;52765;52.258;21.052;2023-10-13T00:51:06;100674.22;;;9.92;100.00
65997;BME280;52765;52.258;21.052;2023-10-13T00:53:36;100689.09;;;9.96;100.00
65997;BME280;52765;52.258;21.052;2023-10-13T00:56:05;100694.91;;;9.92;100.00
65997;BME280;52765;52.258;21.052;2023-10-13T00:58:43;100690.38;;;9.92;100.00
65997;BME280;52765;52.258;21.052;2023-10-13T01:01:09;100677.06;;;9.91;100.00
65997;BME280;52765;52.258;21.052;2023-10-13T01:03:54;100677.94;;;9.91;100.00
65997;BME280;52765;52.258;21.052;2023-10-13T01:06:34;100677.06;;;9.91;100.00
65997;BME280;52765;52.258;21.052;2023-10-13T01:09:04;100684.56;;;9.87;100.00
65997;BME280;52765;52.258;21.052;2023-10-13T01:11:46;100688.56;;;9.73;100.00
65997;BME280;52765;52.258;21.052;2023-10-13T01:14:17;100692.25;;;9.72;100.00
65997;BME280;52765;52.258;21.052;2023-10-13T01:16:48;100692.09;;;9.74;100.00
65997;BME280;52765;52.258;21.052;2023-10-13T01:19:17;100699.19;;;9.75;100.00
65997;BME280;52765;52.258;21.052;2023-10-13T01:21:48;100693.81;;;9.75;100.00
65997;BME280;52765;52.258;21.052;2023-10-13T01:24:13;100708.78;;;9.77;100.00
65997;BME280;52765;52.258;21.052;2023-10-13T01:26:44;100701.75;;;9.76;100.00
65997;BME280;52765;52.258;21.052;2023-10-13T01:29:10;100694.66;;;9.75;100.00
65997;BME280;52765;52.258;21.052;2023-10-13T01:31:43;100697.63;;;9.72;100.00
65997;BME280;52765;52.258;21.052;2023-10-13T01:34:13;100712.34;;;9.68;100.00
65997;BME280;52765;52.258;21.052;2023-10-13T01:36:40;100706.13;;;9.68;100.00
65997;BME280;52765;52.258;21.052;2023-10-13T01:39:07;100708.84;;;9.68;100.00
65997;BME280;52765;52.258;21.052;2023-10-13T01:41:33;100712.50;;;9.67;100.00
65997;BME280;52765;52.258;21.052;2023-10-13T01:44:02;100708.56;;;9.61;100.00
65997;BME280;52765;52.258;21.052;2023-10-13T01:46:29;100710.78;;;9.66;100.00
65997;BME280;52765;52.258;21.052;2023-10-13T01:48:55;100704.28;;;9.68;100.00
65997;BME280;52765;52.258;21.052;2023-10-13T01:51:22;100697.75;;;9.71;100.00
65997;BME280;52765;52.258;21.052;2023-10-13T01:53:48;100699.75;;;9.69;100.00
65997;BME280;52765;52.258;21.052;2023-10-13T01:56:21;100701.59;;;9.68;100.00
65997;BME280;52765;52.258;21.052;2023-10-13T01:58:49;100699.19;;;9.65;100.00
65997;BME280;52765;52.258;21.052;2023-10-13T02:01:14;100695.53;;;9.66;100.00
65997;BME280;52765;52.258;21.052;2023-10-13T02:03:52;100683.75;;;9.67;100.00
65997;BME280;52765;52.258;21.052;2023-10-13T02:06:27;100678.22;;;9.69;100.00
65997;BME280;52765;52.258;21.052;2023-10-13T02:08:58;100691.53;;;9.70;100.00
65997;BME280;52765;52.258;21.052;2023-10-13T02:11:28;100694.38;;;9.69;100.00
65997;BME280;52765;52.258;21.052;2023-10-13T02:13:55;100692.09;;;9.64;100.00
65997;BME280;52765;52.258;21.052;2023-10-13T02:16:22;100690.00;;;9.58;100.00
65997;BME280;52765;52.258;21.052;2023-10-13T02:18:50;100687.88;;;9.52;100.00
65997;BME280;52765;52.258;21.052;2023-10-13T02:21:19;100704.41;;;9.47;100.00
65997;BME280;52765;52.258;21.052;2023-10-13T02:23:44;100694.69;;;9.46;100.00
65997;BME280;52765;52.258;21.052;2023-10-13T02:26:11;100694.94;;;9.43;100.00
65997;BME280;52765;52.258;21.052;2023-10-13T02:28:47;100694.94;;;9.43;100.00
65997;BME280;52765;52.258;21.052;2023-10-13T02:31:20;100706.00;;;9.40;100.00
65997;BME280;52765;52.258;21.052;2023-10-13T02:33:49;100699.91;;;9.38;100.00
65997;BME280;52765;52.258;21.052;2023-10-13T02:36:16;100705.28;;;9.38;100.00
65997;BME280;52765;52.258;21.052;2023-10-13T02:38:48;100694.81;;;9.35;100.00
65997;BME280;52765;52.258;21.052;2023-10-13T02:41:19;100702.88;;;9.35;100.00
65997;BME280;52765;52.258;21.052;2023-10-13T02:43:53;100708.53;;;9.32;100.00
65997;BME280;52765;52.258;21.052;2023-10-13T02:46:20;100708.94;;;9.27;100.00
65997;BME280;52765;52.258;21.052;2023-10-13T02:48:53;100711.06;;;9.23;100.00
65997;BME280;52765;52.258;21.052;2023-10-13T02:51:20;100707.66;;;9.21;100.00
65997;BME280;52765;52.258;21.052;2023-10-13T02:54:09;100706.09;;;9.19;100.00
65997;BME280;52765;52.258;21.052;2023-10-13T02:56:43;100708.22;;;9.15;100.00
65997;BME280;52765;52.258;21.052;2023-10-13T02:59:15;100704.81;;;9.13;100.00
65997;BME280;52765;52.258;21.052;2023-10-13T03:01:47;100699.72;;;9.10;100.00
65997;BME280;52765;52.258;21.052;2023-10-13T03:04:16;100698.00;;;9.09;100.00
65997;BME280;52765;52.258;21.052;2023-10-13T03:06:53;100705.38;;;9.07;100.00
65997;BME280;52765;52.258;21.052;2023-10-13T03:09:25;100693.47;;;9.00;100.00
65997;BME280;52765;52.258;21.052;2023-10-13T03:11:51;100704.22;;;9.00;100.00
65997;BME280;52765;52.258;21.052;2023-10-13T03:14:21;100697.16;;;8.99;100.00
65997;BME280;52765;52.258;21.052;2023-10-13T03:16:58;100692.78;;;8.98;100.00
65997;BME280;52765;52.258;21.052;2023-10-13T03:19:34;100686.66;;;8.96;100.00
65997;BME280;52765;52.258;21.052;2023-10-13T03:22:09;100678.59;;;8.96;100.00
65997;BME280;52765;52.258;21.052;2023-10-13T03:24:37;100687.81;;;8.93;100.00
65997;BME280;52765;52.258;21.052;2023-10-13T03:27:16;100684.41;;;8.91;100.00
65997;BME280;52765;52.258;21.052;2023-10-13T03:29:49;100687.69;;;8.95;100.00
65997;BME280;52765;52.258;21.052;2023-10-13T03:32:28;100680.59;;;8.94;100.00
65997;BME280;52765;52.258;21.052;2023-10-13T03:34:55;100686.13;;;9.02;100.00
65997;BME280;52765;52.258;21.052;2023-10-13T03:37:27;100688.53;;;9.05;100.00
65997;BME280;52765;52.258;21.052;2023-10-13T03:40:06;100684.56;;;9.09;100.00
65997;BME280;52765;52.258;21.052;2023-10-13T03:42:59;100680.34;;;9.06;100.00
65997;BME280;52765;52.258;21.052;2023-10-13T03:45:40;100688.69;;;9.03;100.00
65997;BME280;52765;52.258;21.052;2023-10-13T03:48:11;100706.50;;;8.95;100.00
65997;BME280;52765;52.258;21.052;2023-10-13T03:50:46;100706.88;;;8.90;100.00
65997;BME280;52765;52.258;21.052;2023-10-13T03:53:14;100698.53;;;8.83;100.00
65997;BME280;52765;52.258;21.052;2023-10-13T03:55:41;100699.09;;;8.87;100.00
65997;BME280;52765;52.258;21.052;2023-10-13T03:58:14;100703.06;;;8.83;100.00
65997;BME280;52765;52.258;21.052;2023-10-13T04:00:42;100706.59;;;8.83;100.00
65997;BME280;52765;52.258;21.052;2023-10-13T04:03:08;100692.31;;;8.83;100.00
65997;BME280;52765;52.258;21.052;2023-10-13T04:05:35;100690.47;;;8.83;100.00
65997;BME280;52765;52.258;21.052;2023-10-13T04:08:26;100695.13;;;8.81;100.00
65997;BME280;52765;52.258;21.052;2023-10-13T04:11:01;100701.88;;;8.76;100.00
65997;BME280;52765;52.258;21.052;2023-10-13T04:13:51;100703.00;;;8.63;100.00
65997;BME280;52765;52.258;21.052;2023-10-13T04:16:42;100698.72;;;8.61;100.00
65997;BME280;52765;52.258;21.052;2023-10-13T04:19:23;100693.66;;;8.58;100.00
65997;BME280;52765;52.258;21.052;2023-10-13T04:21:50;100700.16;;;8.65;100.00
65997;BME280;52765;52.258;21.052;2023-10-13T04:24:26;100697.22;;;8.68;100.00
65997;BME280;52765;52.258;21.052;2023-10-13T04:27:10;100686.03;;;8.63;100.00
65997;BME280;52765;52.258;21.052;2023-10-13T04:29:55;100692.28;;;8.73;100.00
65997;BME280;52765;52.258;21.052;2023-10-13T04:32:26;100694.84;;;8.75;100.00
65997;BME280;52765;52.258;21.052;2023-10-13T04:34:59;100688.47;;;8.76;100.00
65997;BME280;52765;52.258;21.052;2023-10-13T04:37:37;100690.31;;;8.75;100.00
65997;BME280;52765;52.258;21.052;2023-10-13T04:40:23;100685.63;;;8.77;100.00
65997;BME280;52765;52.258;21.052;2023-10-13T04:42:55;100695.53;;;8.77;100.00
65997;BME280;52765;52.258;21.052;2023-10-13T04:45:24;100708.28;;;8.75;100.00
65997;BME280;52765;52.258;21.052;2023-10-13T04:48:02;100712.19;;;8.70;100.00
65997;BME280;52765;52.258;21.052;2023-10-13T04:50:40;100712.31;;;8.69;100.00
65997;BME280;52765;52.258;21.052;2023-10-13T04:53:16;100689.03;;;8.69;100.00
65997;BME280;52765;52.258;21.052;2023-10-13T04:56:23;100702.16;;;8.73;100.00
65997;BME280;52765;52.258;21.052;2023-10-13T04:59:33;100695.53;;;8.77;100.00
65997;BME280;52765;52.258;21.052;2023-10-13T05:02:21;100700.06;;;8.76;100.00
65997;BME280;52765;52.258;21.052;2023-10-13T05:04:59;100700.78;;;8.78;100.00
65997;BME280;52765;52.258;21.052;2023-10-13T05:07:47;100686.66;;;8.76;100.00
65997;BME280;52765;52.258;21.052;2023-10-13T05:10:34;100705.63;;;8.84;100.00
65997;BME280;52765;52.258;21.052;2023-10-13T05:13:18;100693.56;;;8.79;100.00
65997;BME280;52765;52.258;21.052;2023-10-13T05:16:02;100700.50;;;8.81;100.00
65997;BME280;52765;52.258;21.052;2023-10-13T05:18:47;100692.72;;;8.78;100.00
65997;BME280;52765;52.258;21.052;2023-10-13T05:21:36;100699.06;;;8.77;100.00
65997;BME280;52765;52.258;21.052;2023-10-13T05:24:20;100714.06;;;8.80;100.00
65997;BME280;52765;52.258;21.052;2023-10-13T05:27:04;100724.81;;;8.80;100.00
65997;BME280;52765;52.258;21.052;2023-10-13T05:29:48;100733.84;;;8.79;100.00
65997;BME280;52765;52.258;21.052;2023-10-13T05:32:32;100736.69;;;8.77;100.00
65997;BME280;52765;52.258;21.052;2023-10-13T05:35:36;100739.94;;;8.81;100.00
65997;BME280;52765;52.258;21.052;2023-10-13T05:38:21;100746.31;;;8.80;100.00
65997;BME280;52765;52.258;21.052;2023-10-13T05:41:05;100754.06;;;8.73;100.00
65997;BME280;52765;52.258;21.052;2023-10-13T05:43:50;100743.44;;;8.72;100.00
65997;BME280;52765;52.258;21.052;2023-10-13T05:46:34;100743.31;;;8.73;100.00
65997;BME280;52765;52.258;21.052;2023-10-13T05:49:03;100737.53;;;8.78;100.00
65997;BME280;52765;52.258;21.052;2023-10-13T05:51:43;100742.34;;;8.84;100.00
65997;BME280;52765;52.258;21.052;2023-10-13T05:54:18;100744.50;;;8.90;100.00
65997;BME280;52765;52.258;21.052;2023-10-13T05:56:44;100737.59;;;8.97;100.00
65997;BME280;52765;52.258;21.052;2023-10-13T05:59:30;100742.44;;;9.03;100.00
65997;BME280;52765;52.258;21.052;2023-10-13T06:02:15;100750.38;;;9.15;100.00
65997;BME280;52765;52.258;21.052;2023-10-13T06:05:09;100771.19;;;9.22;100.00
65997;BME280;52765;52.258;21.052;2023-10-13T06:07:54;100783.22;;;9.28;100.00
65997;BME280;52765;52.258;21.052;2023-10-13T06:10:39;100770.78;;;9.37;100.00
65997;BME280;52765;52.258;21.052;2023-10-13T06:13:24;100777.72;;;9.49;100.00
65997;BME280;52765;52.258;21.052;2023-10-13T06:16:10;100775.66;;;9.53;100.00
65997;BME280;52765;52.258;21.052;2023-10-13T06:18:54;100778.47;;;9.51;100.00
65997;BME280;52765;52.258;21.052;2023-10-13T06:21:39;100786.56;;;9.61;100.00
65997;BME280;52765;52.258;21.052;2023-10-13T06:24:23;100790.94;;;9.72;100.00
65997;BME280;52765;52.258;21.052;2023-10-13T06:27:08;100781.91;;;9.82;100.00
65997;BME280;52765;52.258;21.052;2023-10-13T06:29:53;100805.94;;;9.94;100.00
65997;BME280;52765;52.258;21.052;2023-10-13T06:32:23;100787.53;;;9.99;100.00
65997;BME280;52765;52.258;21.052;2023-10-13T06:34:56;100800.16;;;10.08;100.00
65997;BME280;52765;52.258;21.052;2023-10-13T06:37:31;100793.94;;;10.08;100.00
65997;BME280;52765;52.258;21.052;2023-10-13T06:40:03;100800.69;;;10.22;100.00
65997;BME280;52765;52.258;21.052;2023-10-13T06:42:33;100795.03;;;10.25;100.00
65997;BME280;52765;52.258;21.052;2023-10-13T06:45:08;100776.47;;;10.31;100.00
65997;BME280;52765;52.258;21.052;2023-10-13T06:47:38;100772.22;;;10.39;100.00
65997;BME280;52765;52.258;21.052;2023-10-13T06:50:10;100784.81;;;10.48;100.00
65997;BME280;52765;52.258;21.052;2023-10-13T06:52:50;100786.06;;;10.53;100.00
65997;BME280;52765;52.258;21.052;2023-10-13T06:55:16;100790.44;;;10.64;100.00
65997;BME280;52765;52.258;21.052;2023-10-13T06:58:03;100785.31;;;10.71;100.00
65997;BME280;52765;52.258;21.052;2023-10-13T07:00:32;100776.03;;;10.83;100.00
65997;BME280;52765;52.258;21.052;2023-10-13T07:03:04;100781.53;;;10.91;100.00
65997;BME280;52765;52.258;21.052;2023-10-13T07:05:46;100772.16;;;10.96;100.00
65997;BME280;52765;52.258;21.052;2023-10-13T07:08:18;100778.25;;;10.98;100.00
65997;BME280;52765;52.258;21.052;2023-10-13T07:10:52;100772.00;;;10.97;100.00
65997;BME280;52765;52.258;21.052;2023-10-13T07:13:28;100774.84;;;10.96;100.00
65997;BME280;52765;52.258;21.052;2023-10-13T07:15:54;100776.13;;;11.01;100.00
65997;BME280;52765;52.258;21.052;2023-10-13T07:18:26;100780.91;;;11.07;100.00
65997;BME280;52765;52.258;21.052;2023-10-13T07:20:51;100780.09;;;11.25;100.00
65997;BME280;52765;52.258;21.052;2023-10-13T07:23:25;100785.97;;;11.38;100.00
65997;BME280;52765;52.258;21.052;2023-10-13T07:25:55;100777.00;;;11.47;100.00
65997;BME280;52765;52.258;21.052;2023-10-13T07:28:29;100774.69;;;11.53;100.00
65997;BME280;52765;52.258;21.052;2023-10-13T07:30:56;100794.66;;;11.60;100.00
65997;BME280;52765;52.258;21.052;2023-10-13T07:33:25;100784.22;;;11.65;100.00
65997;BME280;52765;52.258;21.052;2023-10-13T07:36:00;100782.16;;;11.77;100.00
65997;BME280;52765;52.258;21.052;2023-10-13T07:38:26;100782.09;;;11.87;100.00
65997;BME280;52765;52.258;21.052;2023-10-13T07:40:56;100780.56;;;12.02;100.00
65997;BME280;52765;52.258;21.052;2023-10-13T07:43:25;100782.34;;;12.11;100.00
65997;BME280;52765;52.258;21.052;2023-10-13T07:45:52;100775.97;;;12.20;100.00
65997;BME280;52765;52.258;21.052;2023-10-13T07:48:24;100777.38;;;12.25;100.00
65997;BME280;52765;52.258;21.052;2023-10-13T07:51:02;100778.06;;;12.27;100.00
65997;BME280;52765;52.258;21.052;2023-10-13T07:53:32;100768.25;;;12.26;100.00
65997;BME280;52765;52.258;21.052;2023-10-13T07:56:02;100761.06;;;12.34;100.00
65997;BME280;52765;52.258;21.052;2023-10-13T07:58:31;100760.97;;;12.44;100.00
65997;BME280;52765;52.258;21.052;2023-10-13T08:01:01;100756.56;;;12.43;100.00
65997;BME280;52765;52.258;21.052;2023-10-13T08:03:34;100756.56;;;12.43;100.00
65997;BME280;52765;52.258;21.052;2023-10-13T08:06:10;100760.19;;;12.34;100.00
65997;BME280;52765;52.258;21.052;2023-10-13T08:08:39;100759.66;;;12.30;100.00
65997;BME280;52765;52.258;21.052;2023-10-13T08:11:15;100755.44;;;12.28;100.00
65997;BME280;52765;52.258;21.052;2023-10-13T08:13:57;100750.34;;;12.25;100.00
65997;BME280;52765;52.258;21.052;2023-10-13T08:16:36;100752.75;;;12.28;100.00
65997;BME280;52765;52.258;21.052;2023-10-13T08:19:15;100741.78;;;12.29;100.00
65997;BME280;52765;52.258;21.052;2023-10-13T08:21:44;100742.47;;;12.31;100.00
65997;BME280;52765;52.258;21.052;2023-10-13T08:24:27;100743.38;;;12.40;100.00
65997;BME280;52765;52.258;21.052;2023-10-13T08:26:52;100745.97;;;12.50;100.00
65997;BME280;52765;52.258;21.052;2023-10-13T08:29:36;100739.59;;;12.59;100.00
65997;BME280;52765;52.258;21.052;2023-10-13T08:32:27;100724.59;;;12.65;100.00
65997;BME280;52765;52.258;21.052;2023-10-13T08:34:54;100734.66;;;12.81;100.00
65997;BME280;52765;52.258;21.052;2023-10-13T08:37:21;100729.75;;;12.84;100.00
65997;BME280;52765;52.258;21.052;2023-10-13T08:39:51;100730.78;;;12.91;100.00
65997;BME280;52765;52.258;21.052;2023-10-13T08:42:30;100730.66;;;13.01;100.00
65997;BME280;52765;52.258;21.052;2023-10-13T08:45:13;100730.84;;;13.08;100.00
65997;BME280;52765;52.258;21.052;2023-10-13T08:47:57;100730.84;;;13.08;100.00
65997;BME280;52765;52.258;21.052;2023-10-13T08:50:51;100732.34;;;13.02;100.00
65997;BME280;52765;52.258;21.052;2023-10-13T08:58:49;100737.22;;;12.99;100.00
65997;BME280;52765;52.258;21.052;2023-10-13T09:01:22;100743.53;;;13.07;100.00
65997;BME280;52765;52.258;21.052;2023-10-13T09:04:21;100735.06;;;13.10;100.00
65997;BME280;52765;52.258;21.052;2023-10-13T09:06:48;100739.97;;;13.07;100.00
65997;BME280;52765;52.258;21.052;2023-10-13T09:09:52;100731.03;;;13.06;100.00
65997;BME280;52765;52.258;21.052;2023-10-13T09:12:20;100737.44;;;13.13;100.00
65997;BME280;52765;52.258;21.052;2023-10-13T09:15:08;100728.25;;;13.32;100.00
65997;BME280;52765;52.258;21.052;2023-10-13T09:17:48;100723.22;;;13.62;100.00
65997;BME280;52765;52.258;21.052;2023-10-13T09:20:34;100718.84;;;13.78;100.00
65997;BME280;52765;52.258;21.052;2023-10-13T09:23:14;100724.75;;;13.90;100.00
65997;BME280;52765;52.258;21.052;2023-10-13T09:25:50;100715.09;;;13.87;100.00
65997;BME280;52765;52.258;21.052;2023-10-13T09:28:20;100719.69;;;13.86;100.00
65997;BME280;52765;52.258;21.052;2023-10-13T09:30:54;100723.75;;;13.91;100.00
65997;BME280;52765;52.258;21.052;2023-10-13T09:33:25;100715.97;;;14.04;100.00
65997;BME280;52765;52.258;21.052;2023-10-13T09:35:58;100711.53;;;14.19;100.00
65997;BME280;52765;52.258;21.052;2023-10-13T09:38:29;100714.72;;;14.39;100.00
65997;BME280;52765;52.258;21.052;2023-10-13T09:40:54;100717.56;;;14.54;100.00
65997;BME280;52765;52.258;21.052;2023-10-13T09:43:26;100716.00;;;14.68;100.00
65997;BME280;52765;52.258;21.052;2023-10-13T09:45:59;100703.94;;;14.79;99.22
65997;BME280;52765;52.258;21.052;2023-10-13T09:48:35;100704.88;;;14.94;98.76
65997;BME280;52765;52.258;21.052;2023-10-13T09:51:03;100700.25;;;15.03;97.42
65997;BME280;52765;52.258;21.052;2023-10-13T09:53:35;100692.44;;;15.08;97.47
65997;BME280;52765;52.258;21.052;2023-10-13T09:56:28;100679.13;;;15.22;96.86
65997;BME280;52765;52.258;21.052;2023-10-13T09:58:55;100679.13;;;15.22;96.90
65997;BME280;52765;52.258;21.052;2023-10-13T10:01:27;100673.22;;;15.18;96.46
65997;BME280;52765;52.258;21.052;2023-10-13T10:04:10;100677.75;;;15.26;96.98
65997;BME280;52765;52.258;21.052;2023-10-13T10:07:00;100669.84;;;15.16;97.11
65997;BME280;52765;52.258;21.052;2023-10-13T10:09:27;100670.84;;;15.15;97.73
65997;BME280;52765;52.258;21.052;2023-10-13T10:12:12;100668.50;;;15.12;97.72
65997;BME280;52765;52.258;21.052;2023-10-13T10:17:46;100666.78;;;15.19;98.40
65997;BME280;52765;52.258;21.052;2023-10-13T10:20:14;100658.19;;;15.30;98.36
65997;BME280;52765;52.258;21.052;2023-10-13T10:22:57;100663.63;;;15.30;97.34
65997;BME280;52765;52.258;21.052;2023-10-13T10:25:33;100655.13;;;15.33;97.96
65997;BME280;52765;52.258;21.052;2023-10-13T10:28:19;100646.91;;;15.42;97.99
65997;BME280;52765;52.258;21.052;2023-10-13T10:30:49;100647.03;;;15.48;97.72
65997;BME280;52765;52.258;21.052;2023-10-13T10:33:17;100642.09;;;15.52;97.42
65997;BME280;52765;52.258;21.052;2023-10-13T10:36:00;100637.28;;;15.62;96.99
65997;BME280;52765;52.258;21.052;2023-10-13T10:38:30;100628.66;;;15.73;96.71
65997;BME280;52765;52.258;21.052;2023-10-13T10:41:04;100625.25;;;15.80;96.41
65997;BME280;52765;52.258;21.052;2023-10-13T10:43:38;100623.19;;;15.82;96.84
65997;BME280;52765;52.258;21.052;2023-10-13T10:46:25;100620.47;;;15.82;96.96
65997;BME280;52765;52.258;21.052;2023-10-13T10:48:57;100620.09;;;15.85;97.35
65997;BME280;52765;52.258;21.052;2023-10-13T10:51:29;100622.28;;;15.89;97.59
65997;BME280;52765;52.258;21.052;2023-10-13T10:53:59;100616.47;;;15.93;97.45
65997;BME280;52765;52.258;21.052;2023-10-13T10:56:39;100606.72;;;15.98;97.02
65997;BME280;52765;52.258;21.052;2023-10-13T10:59:07;100603.44;;;16.03;97.33
65997;BME280;52765;52.258;21.052;2023-10-13T11:01:53;100600.28;;;15.99;97.69
65997;BME280;52765;52.258;21.052;2023-10-13T11:04:26;100596.13;;;16.03;97.89
65997;BME280;52765;52.258;21.052;2023-10-13T11:07:01;100589.59;;;16.13;97.65
65997;BME280;52765;52.258;21.052;2023-10-13T11:09:36;100592.50;;;16.26;96.77
65997;BME280;52765;52.258;21.052;2023-10-13T11:12:13;100598.47;;;16.36;96.08
65997;BME280;52765;52.258;21.052;2023-10-13T11:15:05;100592.09;;;16.44;95.67
65997;BME280;52765;52.258;21.052;2023-10-13T11:17:41;100586.56;;;16.52;95.91
65997;BME280;52765;52.258;21.052;2023-10-13T11:20:12;100578.94;;;16.62;95.70
65997;BME280;52765;52.258;21.052;2023-10-13T11:22:54;100568.72;;;16.64;95.63
65997;BME280;52765;52.258;21.052;2023-10-13T11:25:27;100567.97;;;16.71;95.48
65997;BME280;52765;52.258;21.052;2023-10-13T11:28:17;100569.88;;;16.77;95.61
65997;BME280;52765;52.258;21.052;2023-10-13T11:30:46;100565.56;;;16.82;95.90
65997;BME280;52765;52.258;21.052;2023-10-13T11:33:17;100563.28;;;17.01;95.21
65997;BME280;52765;52.258;21.052;2023-10-13T11:35:55;100566.88;;;17.30;94.08
65997;BME280;52765;52.258;21.052;2023-10-13T11:38:26;100552.25;;;17.31;93.10
65997;BME280;52765;52.258;21.052;2023-10-13T11:40:53;100553.09;;;17.31;93.51
65997;BME280;52765;52.258;21.052;2023-10-13T11:43:50;100554.19;;;17.37;93.16
65997;BME280;52765;52.258;21.052;2023-10-13T11:46:17;100542.69;;;17.42;93.41
65997;BME280;52765;52.258;21.052;2023-10-13T11:49:04;100537.25;;;17.42;93.41
65997;BME280;52765;52.258;21.052;2023-10-13T11:51:45;100536.56;;;17.61;93.23
65997;BME280;52765;52.258;21.052;2023-10-13T11:54:17;100532.66;;;17.70;92.46
65997;BME280;52765;52.258;21.052;2023-10-13T11:56:47;100531.84;;;17.76;91.77
65997;BME280;52765;52.258;21.052;2023-10-13T11:59:13;100528.72;;;17.80;91.44
65997;BME280;52765;52.258;21.052;2023-10-13T12:01:45;100526.53;;;17.97;91.43
65997;BME280;52765;52.258;21.052;2023-10-13T12:04:30;100523.31;;;18.21;90.25
65997;BME280;52765;52.258;21.052;2023-10-13T12:07:08;100529.03;;;18.40;89.25
65997;BME280;52765;52.258;21.052;2023-10-13T12:09:43;100514.03;;;18.64;88.15
65997;BME280;52765;52.258;21.052;2023-10-13T12:12:24;100514.06;;;18.77;86.67
65997;BME280;52765;52.258;21.052;2023-10-13T12:14:50;100516.84;;;18.84;85.95
65997;BME280;52765;52.258;21.052;2023-10-13T12:17:24;100511.53;;;18.76;85.77
65997;BME280;52765;52.258;21.052;2023-10-13T12:20:05;100512.63;;;18.88;85.48
65997;BME280;52765;52.258;21.052;2023-10-13T12:22:37;100507.41;;;19.07;84.41
65997;BME280;52765;52.258;21.052;2023-10-13T12:25:16;100503.84;;;19.26;83.34
65997;BME280;52765;52.258;21.052;2023-10-13T12:27:59;100492.50;;;19.29;83.22
65997;BME280;52765;52.258;21.052;2023-10-13T12:31:03;100488.94;;;19.29;82.44
65997;BME280;52765;52.258;21.052;2023-10-13T12:33:31;100492.09;;;19.26;82.97
65997;BME280;52765;52.258;21.052;2023-10-13T12:36:06;100485.56;;;19.13;83.26
65997;BME280;52765;52.258;21.052;2023-10-13T12:38:37;100472.75;;;19.07;84.56
65997;BME280;52765;52.258;21.052;2023-10-13T12:41:11;100470.03;;;19.07;84.89
65997;BME280;52765;52.258;21.052;2023-10-13T12:43:55;100462.25;;;19.04;84.92
65997;BME280;52765;52.258;21.052;2023-10-13T12:46:39;100457.22;;;19.01;85.77
65997;BME280;52765;52.258;21.052;2023-10-13T12:49:23;100454.69;;;18.99;85.79
65997;BME280;52765;52.258;21.052;2023-10-13T12:52:07;100466.84;;;18.83;86.96
65997;BME280;52765;52.258;21.052;2023-10-13T12:54:42;100460.69;;;18.61;88.61
65997;BME280;52765;52.258;21.052;2023-10-13T12:57:15;100458.53;;;18.37;90.31
65997;BME280;52765;52.258;21.052;2023-10-13T12:59:43;100455.34;;;18.20;91.33
65997;BME280;52765;52.258;21.052;2023-10-13T13:02:11;100449.25;;;18.11;92.43
65997;BME280;52765;52.258;21.052;2023-10-13T13:04:44;100444.19;;;18.08;93.29
65997;BME280;52765;52.258;21.052;2023-10-13T13:07:14;100455.31;;;18.06;94.10
65997;BME280;52765;52.258;21.052;2023-10-13T13:09:41;100432.22;;;17.96;94.69
65997;BME280;52765;52.258;21.052;2023-10-13T13:12:18;100455.28;;;18.00;95.39
65997;BME280;52765;52.258;21.052;2023-10-13T13:14:47;100454.44;;;17.99;95.34
65997;BME280;52765;52.258;21.052;2023-10-13T13:17:18;100463.28;;;18.08;95.50
65997;BME280;52765;52.258;21.052;2023-10-13T13:19:45;100451.78;;;18.12;95.70
65997;BME280;52765;52.258;21.052;2023-10-13T13:22:14;100441.28;;;18.09;95.83
65997;BME280;52765;52.258;21.052;2023-10-13T13:24:41;100448.84;;;18.14;96.35
65997;BME280;52765;52.258;21.052;2023-10-13T13:27:12;100442.16;;;18.30;95.89